Time,TemperatureF,DewpointF,PressureIn,WindDirection,WindDirectionDegrees,WindSpeedMPH,WindSpeedGustMPH,Humidity,HourlyPrecipIn,Conditions,Clouds,dailyrainin,SoftwareType,DateUTC
2013-02-01 00:03:00,2.8,-3.1,29.87,North,0,0.0,2.5,76,0.00,,,0.00,WUHU21623XXSP,2013-02-01 06:03:00,
2013-02-01 00:08:00,2.8,-3.1,29.87,North,0,0.0,0.0,76,0.00,,,0.00,WUHU21623XXSP,2013-02-01 06:08:00,
2013-02-01 00:13:00,2.8,-3.1,29.87,North,0,7.2,7.2,76,0.00,,,0.00,WUHU21623XXSP,2013-02-01 06:13:00,
2013-02-01 00:18:00,2.8,-3.1,29.87,North,0,8.3,8.3,76,0.00,,,0.00,WUHU21623XXSP,2013-02-01 06:18:00,
2013-02-01 00:23:00,2.5,-3.5,29.87,North,0,1.3,8.3,76,0.00,,,0.00,WUHU21623XXSP,2013-02-01 06:23:00,
2013-02-01 00:28:00,2.5,-3.5,29.88,North,0,2.0,8.3,76,0.00,,,0.00,WUHU21623XXSP,2013-02-01 06:28:00,
2013-02-01 00:33:00,2.5,-3.5,29.88,North,0,2.9,3.8,76,0.00,,,0.00,WUHU21623XXSP,2013-02-01 06:33:00,
2013-02-01 00:38:00,2.5,-3.5,29.88,North,0,1.8,3.8,76,0.00,,,0.00,WUHU21623XXSP,2013-02-01 06:38:00,
2013-02-01 00:43:00,2.3,-3.2,29.88,North,0,5.8,5.8,77,0.00,,,0.00,WUHU21623XXSP,2013-02-01 06:43:00,
2013-02-01 00:48:00,2.3,-3.4,29.88,North,0,6.0,6.0,77,0.00,,,0.00,WUHU21623XXSP,2013-02-01 06:48:00,
2013-02-01 00:54:00,2.3,-3.4,29.88,North,0,5.4,6.0,77,0.00,,,0.00,WUHU21623XXSP,2013-02-01 06:54:00,
2013-02-01 00:55:00,2.1,-3.6,29.88,North,0,3.1,6.0,77,0.00,,,0.00,WUHU21623XXSP,2013-02-01 06:55:00,
2013-02-01 01:31:00,1.9,-3.6,29.89,North,0,0.0,0.0,77,0.00,,,0.00,WUHU21623XXSP,2013-02-01 07:31:00,
2013-02-01 02:31:00,1.4,-4.4,29.92,North,0,0.0,0.0,76,0.00,,,0.00,WUHU21623XXSP,2013-02-01 08:31:00,
2013-02-01 03:31:00,0.9,-4.6,29.94,North,0,3.6,3.6,77,0.00,,,0.00,WUHU21623XXSP,2013-02-01 09:31:00,
2013-02-01 04:31:00,0.3,-5.2,29.96,North,0,5.1,5.1,77,0.00,,,0.00,WUHU21623XXSP,2013-02-01 10:31:00,
2013-02-01 05:31:00,-0.6,-6.1,29.98,North,0,0.0,0.0,77,0.00,,,0.00,WUHU21623XXSP,2013-02-01 11:31:00,
2013-02-01 06:31:00,-1.3,-6.7,30.00,North,0,4.5,4.5,77,0.00,,,0.00,WUHU21623XXSP,2013-02-01 12:31:00,
2013-02-01 07:13:00,-1.8,-7.1,30.01,North,0,0.0,0.0,78,0.00,,,0.00,WUHU21623XXSP,2013-02-01 13:13:00,
2013-02-01 07:18:00,-1.8,-7.1,30.01,North,0,2.9,5.6,78,0.00,,,0.00,WUHU21623XXSP,2013-02-01 13:18:00,
2013-02-01 07:23:00,-1.8,-7.1,30.01,North,0,0.0,5.6,78,0.00,,,0.00,WUHU21623XXSP,2013-02-01 13:23:00,
2013-02-01 07:28:00,-1.8,-7.1,30.00,North,0,0.0,2.2,78,0.00,,,0.00,WUHU21623XXSP,2013-02-01 13:28:00,
2013-02-01 07:33:00,-1.8,-7.1,30.00,North,0,4.9,4.9,78,0.00,,,0.00,WUHU21623XXSP,2013-02-01 13:33:00,
2013-02-01 07:38:00,-1.7,-7.2,30.01,North,0,4.5,4.9,77,0.00,,,0.00,WUHU21623XXSP,2013-02-01 13:38:00,
2013-02-01 07:42:00,-1.5,-7.0,30.01,North,0,0.0,4.5,77,0.00,,,0.00,WUHU21623XXSP,2013-02-01 13:42:00,
2013-02-01 07:49:00,-1.5,-7.0,30.01,North,0,4.9,5.4,77,0.00,,,0.00,WUHU21623XXSP,2013-02-01 13:49:00,
2013-02-01 07:53:00,-1.5,-7.0,30.01,North,0,1.1,5.4,77,0.00,,,0.00,WUHU21623XXSP,2013-02-01 13:53:00,
2013-02-01 08:08:00,-0.2,-6.1,30.02,North,0,5.4,7.2,76,0.00,,,0.00,WUHU21623XXSP,2013-02-01 14:08:00,
2013-02-01 08:13:00,1.2,-5.0,30.03,North,0,0.0,5.4,75,0.00,,,0.00,WUHU21623XXSP,2013-02-01 14:13:00,
2013-02-01 08:18:00,3.7,-3.1,30.03,North,0,2.5,5.4,73,0.00,,,0.00,WUHU21623XXSP,2013-02-01 14:18:00,
2013-02-01 08:23:00,3.9,-3.7,30.03,North,0,6.7,6.7,70,0.00,,,0.00,WUHU21623XXSP,2013-02-01 14:23:00,
2013-02-01 08:31:00,1.0,-6.5,30.02,North,0,2.0,6.7,70,0.00,,,0.00,WUHU21623XXSP,2013-02-01 14:31:00,
2013-02-01 09:31:00,0.0,-6.6,30.03,North,0,0.9,0.9,73,0.00,,,0.00,WUHU21623XXSP,2013-02-01 15:31:00,
2013-02-01 10:15:00,0.3,-6.7,30.03,North,0,2.9,2.9,72,0.00,,,0.00,WUHU21623XXSP,2013-02-01 16:15:00,
2013-02-01 10:20:00,0.3,-6.7,30.03,North,0,6.0,6.0,72,0.00,,,0.00,WUHU21623XXSP,2013-02-01 16:20:00,
2013-02-01 10:25:00,0.3,-6.7,30.04,North,0,4.5,6.0,72,0.00,,,0.00,WUHU21623XXSP,2013-02-01 16:25:00,
2013-02-01 10:30:00,0.5,-6.5,30.04,North,0,0.0,5.4,72,0.00,,,0.00,WUHU21623XXSP,2013-02-01 16:30:00,
2013-02-01 10:35:00,0.7,-6.3,30.04,North,0,3.8,3.8,72,0.00,,,0.00,WUHU21623XXSP,2013-02-01 16:35:00,
2013-02-01 10:40:00,0.9,-6.2,30.04,North,0,6.0,10.5,72,0.00,,,0.00,WUHU21623XXSP,2013-02-01 16:40:00,
2013-02-01 10:45:00,1.0,-6.0,30.04,North,0,0.0,10.5,72,0.00,,,0.00,WUHU21623XXSP,2013-02-01 16:45:00,
2013-02-01 10:50:00,1.2,-5.8,30.04,North,0,0.0,4.7,72,0.00,,,0.00,WUHU21623XXSP,2013-02-01 16:50:00,
2013-02-01 10:55:00,1.8,-5.0,30.04,North,0,1.8,4.7,73,0.00,,,0.00,WUHU21623XXSP,2013-02-01 16:55:00,
2013-02-01 11:00:00,1.8,-5.3,30.04,North,0,5.4,5.4,72,0.00,,,0.00,WUHU21623XXSP,2013-02-01 17:00:00,
2013-02-01 11:05:00,1.8,-5.3,30.03,North,0,4.5,5.4,72,0.00,,,0.00,WUHU21623XXSP,2013-02-01 17:05:00,
2013-02-01 11:10:00,1.9,-5.1,30.03,North,0,0.0,4.9,72,0.00,,,0.00,WUHU21623XXSP,2013-02-01 17:10:00,
2013-02-01 11:15:00,2.1,-4.9,30.03,North,0,0.0,4.9,72,0.00,,,0.00,WUHU21623XXSP,2013-02-01 17:15:00,
2013-02-01 11:20:00,2.5,-4.5,30.03,North,0,0.0,0.9,72,0.00,,,0.00,WUHU21623XXSP,2013-02-01 17:20:00,
2013-02-01 11:21:00,2.5,-4.8,30.03,North,0,0.0,0.9,71,0.00,,,0.00,WUHU21623XXSP,2013-02-01 17:21:00,
2013-02-01 11:31:00,2.5,-4.7,30.03,North,0,0.0,0.0,71,0.00,,,0.00,WUHU21623XXSP,2013-02-01 17:31:00,
2013-02-01 12:31:00,4.5,-3.1,30.02,North,0,2.5,2.5,70,0.00,,,0.00,WUHU21623XXSP,2013-02-01 18:31:00,
2013-02-01 13:31:00,5.2,-2.7,30.00,North,0,0.9,0.9,69,0.00,,,0.00,WUHU21623XXSP,2013-02-01 19:31:00,
2013-02-01 14:31:00,5.2,-3.3,30.00,North,0,0.7,0.7,67,0.00,,,0.00,WUHU21623XXSP,2013-02-01 20:31:00,
2013-02-01 15:31:00,4.8,-3.4,30.00,North,0,5.1,5.1,68,0.00,,,0.00,WUHU21623XXSP,2013-02-01 21:31:00,
2013-02-01 15:43:00,4.6,-3.7,30.00,North,0,5.8,5.8,68,0.00,,,0.00,WUHU21623XXSP,2013-02-01 21:43:00,
2013-02-01 15:48:00,4.6,-3.7,30.00,North,0,8.1,8.1,68,0.00,,,0.00,WUHU21623XXSP,2013-02-01 21:48:00,
2013-02-01 15:53:00,4.6,-3.7,29.99,North,0,3.8,8.1,68,0.00,,,0.00,WUHU21623XXSP,2013-02-01 21:53:00,
2013-02-01 15:58:00,4.5,-3.9,29.99,North,0,3.1,8.1,68,0.00,,,0.00,WUHU21623XXSP,2013-02-01 21:58:00,
2013-02-01 16:03:00,4.3,-4.0,29.99,North,0,2.9,5.1,68,0.00,,,0.00,WUHU21623XXSP,2013-02-01 22:03:00,
2013-02-01 16:08:00,3.9,-4.4,29.98,North,0,3.8,5.1,68,0.00,,,0.00,WUHU21623XXSP,2013-02-01 22:08:00,
2013-02-01 16:13:00,3.9,-4.0,29.98,North,0,9.8,9.8,69,0.00,,,0.00,WUHU21623XXSP,2013-02-01 22:13:00,
2013-02-01 16:18:00,3.7,-4.2,29.98,North,0,2.0,9.8,69,0.00,,,0.00,WUHU21623XXSP,2013-02-01 22:18:00,
2013-02-01 16:23:00,3.6,-4.4,29.98,North,0,2.5,4.0,69,0.00,,,0.00,WUHU21623XXSP,2013-02-01 22:23:00,
2013-02-01 16:28:00,3.4,-4.5,29.98,North,0,7.2,7.6,69,0.00,,,0.00,WUHU21623XXSP,2013-02-01 22:28:00,
2013-02-01 16:33:00,3.4,-4.2,29.97,North,0,0.0,7.6,70,0.00,,,0.00,WUHU21623XXSP,2013-02-01 22:33:00,
2013-02-01 16:38:00,3.4,-4.5,29.97,North,0,2.9,2.9,69,0.00,,,0.00,WUHU21623XXSP,2013-02-01 22:38:00,
2013-02-01 16:43:00,3.0,-4.5,29.98,North,0,3.1,3.1,70,0.00,,,0.00,WUHU21623XXSP,2013-02-01 22:43:00,
2013-02-01 16:48:00,3.0,-4.5,29.97,North,0,6.9,8.7,70,0.00,,,0.00,WUHU21623XXSP,2013-02-01 22:48:00,
2013-02-01 16:53:00,3.0,-4.5,29.97,North,0,0.9,8.7,70,0.00,,,0.00,WUHU21623XXSP,2013-02-01 22:53:00,
2013-02-01 16:58:00,3.0,-4.3,29.97,North,0,3.6,5.1,71,0.00,,,0.00,WUHU21623XXSP,2013-02-01 22:58:00,
2013-02-01 17:03:00,3.0,-4.3,29.97,North,0,3.8,5.1,71,0.00,,,0.00,WUHU21623XXSP,2013-02-01 23:03:00,
2013-02-01 17:08:00,3.0,-4.3,29.97,North,0,2.0,3.8,71,0.00,,,0.00,WUHU21623XXSP,2013-02-01 23:08:00,
2013-02-01 17:13:00,3.0,-4.3,29.97,North,0,0.0,2.0,71,0.00,,,0.00,WUHU21623XXSP,2013-02-01 23:13:00,
2013-02-01 17:18:00,3.0,-4.3,29.97,North,0,0.0,0.0,71,0.00,,,0.00,WUHU21623XXSP,2013-02-01 23:18:00,
2013-02-01 17:23:00,3.0,-4.3,29.97,North,0,3.6,3.6,71,0.00,,,0.00,WUHU21623XXSP,2013-02-01 23:23:00,
2013-02-01 17:28:00,3.0,-4.3,29.97,North,0,2.5,3.6,71,0.00,,,0.00,WUHU21623XXSP,2013-02-01 23:28:00,
2013-02-01 17:33:00,3.0,-4.3,29.97,North,0,5.1,6.0,71,0.00,,,0.00,WUHU21623XXSP,2013-02-01 23:33:00,
2013-02-01 17:38:00,3.0,-4.0,29.97,North,0,2.9,6.0,72,0.00,,,0.00,WUHU21623XXSP,2013-02-01 23:38:00,
2013-02-01 17:43:00,3.0,-4.3,29.97,North,0,2.5,5.1,71,0.00,,,0.00,WUHU21623XXSP,2013-02-01 23:43:00,
2013-02-01 17:48:00,3.0,-4.0,29.97,North,0,0.0,6.0,72,0.00,,,0.00,WUHU21623XXSP,2013-02-01 23:48:00,
2013-02-01 17:53:00,3.0,-4.0,29.97,North,0,0.0,6.0,72,0.00,,,0.00,WUHU21623XXSP,2013-02-01 23:53:00,
2013-02-01 17:58:00,3.4,-3.7,29.97,North,0,0.0,0.0,72,0.00,,,0.00,WUHU21623XXSP,2013-02-01 23:58:00,
2013-02-01 18:03:00,3.4,-3.7,29.97,North,0,0.0,0.0,72,0.00,,,0.00,WUHU21623XXSP,2013-02-02 00:03:00,
2013-02-01 18:08:00,3.6,-3.5,29.97,North,0,6.3,6.3,72,0.00,,,0.00,WUHU21623XXSP,2013-02-02 00:08:00,
2013-02-01 18:13:00,3.7,-3.3,29.96,North,0,2.5,6.3,72,0.00,,,0.00,WUHU21623XXSP,2013-02-02 00:13:00,
2013-02-01 18:18:00,3.9,-3.2,29.97,North,0,7.6,7.6,72,0.00,,,0.00,WUHU21623XXSP,2013-02-02 00:18:00,
2013-02-01 18:23:00,3.9,-3.2,29.96,North,0,4.5,7.6,72,0.00,,,0.00,WUHU21623XXSP,2013-02-02 00:23:00,
2013-02-01 18:29:00,3.9,-3.2,29.97,North,0,0.9,4.5,72,0.00,,,0.00,WUHU21623XXSP,2013-02-02 00:29:00,
2013-02-01 18:34:00,4.1,-3.0,29.96,North,0,1.6,2.9,72,0.00,,,0.00,WUHU21623XXSP,2013-02-02 00:34:00,
2013-02-01 18:39:00,4.3,-2.8,29.96,North,0,2.7,2.9,72,0.00,,,0.00,WUHU21623XXSP,2013-02-02 00:39:00,
2013-02-01 18:44:00,4.3,-2.8,29.96,North,0,0.0,5.4,72,0.00,,,0.00,WUHU21623XXSP,2013-02-02 00:44:00,
2013-02-01 18:49:00,4.5,-2.7,29.96,North,0,2.7,5.4,72,0.00,,,0.00,WUHU21623XXSP,2013-02-02 00:49:00,
2013-02-01 18:54:00,4.6,-2.5,29.96,North,0,2.9,8.7,72,0.00,,,0.00,WUHU21623XXSP,2013-02-02 00:54:00,
2013-02-01 18:59:00,4.6,-2.5,29.96,North,0,2.5,8.7,72,0.00,,,0.00,WUHU21623XXSP,2013-02-02 00:59:00,
2013-02-01 19:04:00,4.8,-2.3,29.96,North,0,4.5,4.5,72,0.00,,,0.00,WUHU21623XXSP,2013-02-02 01:04:00,
2013-02-01 19:09:00,4.8,-2.1,29.96,North,0,0.0,4.5,73,0.00,,,0.00,WUHU21623XXSP,2013-02-02 01:09:00,
2013-02-01 19:14:00,5.0,-1.9,29.96,North,0,0.0,2.9,73,0.00,,,0.00,WUHU21623XXSP,2013-02-02 01:14:00,
2013-02-01 19:19:00,5.0,-1.9,29.95,North,0,0.0,2.9,73,0.00,,,0.00,WUHU21623XXSP,2013-02-02 01:19:00,
2013-02-01 19:24:00,5.2,-1.7,29.95,North,0,0.0,5.1,73,0.00,,,0.00,WUHU21623XXSP,2013-02-02 01:24:00,
2013-02-01 19:29:00,5.2,-1.7,29.95,North,0,3.6,5.1,73,0.00,,,0.00,WUHU21623XXSP,2013-02-02 01:29:00,
2013-02-01 19:34:00,5.2,-1.7,29.95,North,0,0.7,3.6,73,0.00,,,0.00,WUHU21623XXSP,2013-02-02 01:34:00,
2013-02-01 19:39:00,5.2,-1.7,29.95,North,0,2.2,2.5,73,0.00,,,0.00,WUHU21623XXSP,2013-02-02 01:39:00,
2013-02-01 19:44:00,5.4,-1.5,29.96,North,0,1.8,2.2,73,0.00,,,0.00,WUHU21623XXSP,2013-02-02 01:44:00,
2013-02-01 19:49:00,5.5,-1.3,29.96,North,0,0.0,1.8,73,0.00,,,0.00,WUHU21623XXSP,2013-02-02 01:49:00,
2013-02-01 19:54:00,5.5,-1.3,29.96,North,0,2.5,2.5,73,0.00,,,0.00,WUHU21623XXSP,2013-02-02 01:54:00,
2013-02-01 19:59:00,5.5,-1.3,29.96,North,0,0.0,2.5,73,0.00,,,0.00,WUHU21623XXSP,2013-02-02 01:59:00,
2013-02-01 20:04:00,5.7,-0.9,29.95,North,0,4.5,4.5,74,0.00,,,0.00,WUHU21623XXSP,2013-02-02 02:04:00,
2013-02-01 20:09:00,5.7,-0.9,29.95,North,0,2.0,4.5,74,0.00,,,0.00,WUHU21623XXSP,2013-02-02 02:09:00,
2013-02-01 20:14:00,6.1,-0.5,29.95,North,0,0.0,2.2,74,0.00,,,0.00,WUHU21623XXSP,2013-02-02 02:14:00,
2013-02-01 20:19:00,6.1,-0.5,29.95,North,0,5.8,5.8,74,0.00,,,0.00,WUHU21623XXSP,2013-02-02 02:19:00,
2013-02-01 20:24:00,6.1,-0.5,29.96,North,0,3.4,5.8,74,0.00,,,0.00,WUHU21623XXSP,2013-02-02 02:24:00,
2013-02-01 20:29:00,6.3,-0.3,29.95,North,0,2.0,3.4,74,0.00,,,0.00,WUHU21623XXSP,2013-02-02 02:29:00,
2013-02-01 20:34:00,6.4,-0.1,29.95,North,0,3.8,3.8,74,0.00,,,0.00,WUHU21623XXSP,2013-02-02 02:34:00,
2013-02-01 20:39:00,6.4,-0.1,29.95,North,0,0.7,3.8,74,0.00,,,0.00,WUHU21623XXSP,2013-02-02 02:39:00,
2013-02-01 20:44:00,6.4,0.1,29.95,North,0,3.4,4.5,75,0.00,,,0.00,WUHU21623XXSP,2013-02-02 02:44:00,
2013-02-01 20:49:00,6.4,0.1,29.95,North,0,1.8,4.5,75,0.00,,,0.00,WUHU21623XXSP,2013-02-02 02:49:00,
2013-02-01 20:54:00,6.4,0.1,29.95,North,0,3.4,3.4,75,0.00,,,0.00,WUHU21623XXSP,2013-02-02 02:54:00,
2013-02-01 20:59:00,6.4,0.1,29.95,North,0,2.0,3.4,76,0.00,,,0.00,WUHU21623XXSP,2013-02-02 02:59:00,
2013-02-01 21:04:00,6.4,0.4,29.95,North,0,5.1,5.1,76,0.00,,,0.00,WUHU21623XXSP,2013-02-02 03:04:00,
2013-02-01 21:09:00,6.4,0.4,29.95,North,0,0.7,5.1,76,0.00,,,0.00,WUHU21623XXSP,2013-02-02 03:09:00,
2013-02-01 21:14:00,6.4,0.7,29.95,North,0,2.0,4.3,77,0.00,,,0.00,WUHU21623XXSP,2013-02-02 03:14:00,
2013-02-01 21:19:00,6.4,0.7,29.95,North,0,4.5,4.5,77,0.00,,,0.00,WUHU21623XXSP,2013-02-02 03:19:00,
2013-02-01 21:24:00,6.4,0.7,29.95,North,0,9.2,9.2,77,0.00,,,0.00,WUHU21623XXSP,2013-02-02 03:24:00,
2013-02-01 21:29:00,6.4,0.7,29.95,North,0,4.0,9.2,77,0.00,,,0.00,WUHU21623XXSP,2013-02-02 03:29:00,
2013-02-01 21:34:00,6.4,0.7,29.94,North,0,2.0,9.2,77,0.00,,,0.00,WUHU21623XXSP,2013-02-02 03:34:00,
2013-02-01 21:39:00,6.4,0.7,29.94,North,0,4.0,4.5,77,0.00,,,0.00,WUHU21623XXSP,2013-02-02 03:39:00,
2013-02-01 21:44:00,6.4,0.7,29.94,North,0,0.9,4.0,77,0.00,,,0.00,WUHU21623XXSP,2013-02-02 03:44:00,
2013-02-01 21:49:00,6.4,0.7,29.94,North,0,0.0,2.5,77,0.00,,,0.00,WUHU21623XXSP,2013-02-02 03:49:00,
2013-02-01 21:54:00,6.4,1.0,29.94,North,0,3.1,3.1,78,0.00,,,0.00,WUHU21623XXSP,2013-02-02 03:54:00,
2013-02-01 21:59:00,6.4,1.0,29.94,North,0,0.0,3.1,78,0.00,,,0.00,WUHU21623XXSP,2013-02-02 03:59:00,
2013-02-01 22:04:00,6.6,1.2,29.94,North,0,2.2,2.2,78,0.00,,,0.00,WUHU21623XXSP,2013-02-02 04:04:00,
2013-02-01 22:09:00,6.6,1.2,29.94,North,0,2.0,2.2,78,0.00,,,0.00,WUHU21623XXSP,2013-02-02 04:09:00,
2013-02-01 22:14:00,6.6,1.5,29.93,North,0,2.0,4.5,79,0.00,,,0.00,WUHU21623XXSP,2013-02-02 04:14:00,
2013-02-01 22:19:00,6.6,1.5,29.93,North,0,5.4,5.4,79,0.00,,,0.00,WUHU21623XXSP,2013-02-02 04:19:00,
2013-02-01 22:24:00,6.6,1.5,29.93,North,0,2.0,5.4,79,0.00,,,0.00,WUHU21623XXSP,2013-02-02 04:24:00,
2013-02-01 22:29:00,6.6,1.5,29.92,North,0,0.0,2.9,79,0.00,,,0.00,WUHU21623XXSP,2013-02-02 04:29:00,
2013-02-01 22:34:00,7.0,1.7,29.92,North,0,0.0,2.9,79,0.00,,,0.00,WUHU21623XXSP,2013-02-02 04:34:00,
2013-02-01 22:39:00,7.0,1.8,29.92,North,0,1.8,1.8,79,0.00,,,0.00,WUHU21623XXSP,2013-02-02 04:39:00,
2013-02-01 22:44:00,7.0,1.8,29.93,North,0,0.0,1.8,79,0.00,,,0.00,WUHU21623XXSP,2013-02-02 04:44:00,
2013-02-01 22:46:00,7.0,1.8,29.92,North,0,0.0,1.8,79,0.00,,,0.00,WUHU21623XXSP,2013-02-02 04:46:00,
2013-02-01 23:31:00,7.5,2.6,29.91,North,0,0.0,0.0,80,0.00,,,0.00,WUHU21623XXSP,2013-02-02 05:31:00,